createdAt,value
2024-03-27T00:00:00.156Z,75
2024-03-27T00:05:00.121Z,75
2024-03-27T00:10:00.256Z,75
2024-03-27T00:15:00.136Z,75
2024-03-27T00:20:00.167Z,74
2024-03-27T00:25:00.138Z,74
2024-03-27T00:30:00.187Z,73
2024-03-27T00:35:00.150Z,73
2024-03-27T00:40:00.186Z,74
2024-03-27T00:45:00.203Z,74
2024-03-27T00:50:00.227Z,74
2024-03-27T00:55:00.122Z,74
2024-03-27T01:00:00.235Z,75
2024-03-27T01:05:00.181Z,74
2024-03-27T01:10:00.312Z,74
2024-03-27T01:15:00.249Z,74
2024-03-27T01:20:00.254Z,75
2024-03-27T01:25:00.206Z,75
2024-03-27T01:30:00.416Z,74
2024-03-27T01:35:00.221Z,74
2024-03-27T01:40:00.394Z,75
2024-03-27T01:45:00.172Z,75
2024-03-27T01:50:00.504Z,74
2024-03-27T01:55:00.494Z,74
2024-03-27T02:00:00.269Z,74
2024-03-27T02:05:00.243Z,74
2024-03-27T02:10:00.329Z,74
2024-03-27T02:15:00.220Z,75
2024-03-27T02:20:00.366Z,75
2024-03-27T02:25:00.356Z,77
2024-03-27T02:30:00.260Z,77
2024-03-27T02:35:00.299Z,77
2024-03-27T02:40:00.415Z,77
2024-03-27T02:45:00.254Z,76
2024-03-27T02:50:00.281Z,77
2024-03-27T02:55:00.259Z,78
2024-03-27T03:00:00.328Z,78
2024-03-27T03:05:00.237Z,79
2024-03-27T03:10:00.427Z,81
2024-03-27T03:15:00.265Z,80
2024-03-27T03:20:00.214Z,80
2024-03-27T03:25:00.223Z,80
2024-03-27T03:30:00.351Z,80
2024-03-27T03:35:00.148Z,80
2024-03-27T03:40:00.258Z,81
2024-03-27T03:45:00.142Z,82
2024-03-27T03:50:00.286Z,83
2024-03-27T03:55:00.182Z,82
2024-03-27T04:00:00.366Z,82
2024-03-27T04:05:00.249Z,82
2024-03-27T04:10:00.312Z,83
2024-03-27T04:15:00.292Z,83
2024-03-27T04:20:00.209Z,85
2024-03-27T04:25:00.257Z,85
2024-03-27T04:30:00.209Z,85
2024-03-27T04:35:00.190Z,87
2024-03-27T04:40:00.211Z,87
2024-03-27T04:45:00.256Z,88
2024-03-27T04:50:00.238Z,88
2024-03-27T04:55:00.225Z,88
2024-03-27T05:00:00.202Z,88
2024-03-27T05:05:00.188Z,88
2024-03-27T05:10:00.239Z,88
2024-03-27T05:15:00.264Z,88
2024-03-27T05:20:00.203Z,89
2024-03-27T05:25:00.225Z,89
2024-03-27T05:30:00.244Z,89
2024-03-27T05:35:00.235Z,88
2024-03-27T05:40:00.262Z,88
2024-03-27T05:45:00.273Z,88
2024-03-27T05:50:00.285Z,89
2024-03-27T05:55:00.434Z,89
2024-03-27T06:00:00.261Z,89
2024-03-27T06:05:03.609Z,89
2024-03-27T06:10:00.213Z,89
2024-03-27T06:15:00.250Z,87
2024-03-27T06:20:00.234Z,87
2024-03-27T06:25:00.195Z,84
2024-03-27T06:30:00.270Z,85
2024-03-27T06:35:00.212Z,85
2024-03-27T06:40:00.204Z,84
2024-03-27T06:45:06.822Z,84
2024-03-27T06:50:00.275Z,82
2024-03-27T06:55:00.235Z,82
2024-03-27T07:00:00.514Z,82
2024-03-27T07:05:01.772Z,82
2024-03-27T07:10:00.213Z,82
2024-03-27T07:15:00.295Z,82
2024-03-27T07:20:00.199Z,81
2024-03-27T07:25:00.236Z,80
2024-03-27T07:30:00.235Z,77
2024-03-27T07:35:01.991Z,71
2024-03-27T07:40:00.193Z,69
2024-03-27T07:45:03.468Z,67
2024-03-27T07:50:00.214Z,66
2024-03-27T07:55:00.197Z,66
2024-03-27T08:00:00.357Z,66
2024-03-27T08:05:00.207Z,68
2024-03-27T08:10:00.253Z,67
2024-03-27T08:15:00.185Z,68
2024-03-27T08:20:00.209Z,68
2024-03-27T08:25:00.213Z,68
2024-03-27T08:30:00.297Z,68
2024-03-27T08:35:00.225Z,68
2024-03-27T08:40:00.212Z,68
2024-03-27T08:45:00.255Z,68
2024-03-27T08:50:00.241Z,68
2024-03-27T08:55:00.247Z,68
2024-03-27T09:00:02.408Z,68
2024-03-27T09:05:00.196Z,68
2024-03-27T09:10:00.196Z,68
2024-03-27T09:15:00.202Z,67
2024-03-27T09:20:00.352Z,68
2024-03-27T09:25:00.197Z,68
2024-03-27T09:30:02.659Z,67
2024-03-27T09:35:00.205Z,68
2024-03-27T09:40:00.234Z,68
2024-03-27T09:45:00.221Z,68
2024-03-27T09:50:00.228Z,68
2024-03-27T09:55:00.229Z,68
2024-03-27T10:00:00.338Z,69
2024-03-27T10:05:00.174Z,69
2024-03-27T10:10:00.198Z,69
2024-03-27T10:15:00.220Z,69
2024-03-27T10:20:00.216Z,69
2024-03-27T10:25:00.187Z,70
2024-03-27T10:30:00.264Z,69
2024-03-27T10:35:06.391Z,69
2024-03-27T10:40:00.221Z,69
2024-03-27T10:45:00.217Z,70
2024-03-27T10:50:00.254Z,70
2024-03-27T10:55:00.262Z,69
2024-03-27T11:00:00.235Z,69
2024-03-27T11:05:00.223Z,68
2024-03-27T11:10:00.234Z,68
2024-03-27T11:15:00.431Z,68
2024-03-27T11:20:00.236Z,69
2024-03-27T11:25:00.227Z,68
2024-03-27T11:30:00.287Z,69
2024-03-27T11:35:00.207Z,69
2024-03-27T11:40:00.228Z,69
2024-03-27T11:45:00.281Z,69
2024-03-27T11:50:00.248Z,70
2024-03-27T11:55:00.195Z,71
2024-03-27T12:00:00.259Z,70
2024-03-27T12:05:00.192Z,70
2024-03-27T12:10:00.231Z,70
2024-03-27T12:15:00.196Z,71
2024-03-27T12:20:00.243Z,71
2024-03-27T12:25:00.196Z,71
2024-03-27T12:30:00.240Z,71
2024-03-27T12:35:02.743Z,71
2024-03-27T12:40:00.331Z,72
2024-03-27T12:45:00.259Z,72
2024-03-27T12:50:00.192Z,72
2024-03-27T12:55:00.231Z,73
2024-03-27T13:00:00.229Z,73
2024-03-27T13:05:00.210Z,73
2024-03-27T13:10:00.223Z,74
2024-03-27T13:15:00.175Z,73
2024-03-27T13:20:00.229Z,73
2024-03-27T13:25:00.201Z,73
2024-03-27T13:30:00.269Z,73
2024-03-27T13:35:00.202Z,74
2024-03-27T13:40:00.258Z,74
2024-03-27T13:45:00.204Z,74
2024-03-27T13:50:00.204Z,73
2024-03-27T13:55:00.187Z,73
2024-03-27T14:00:00.209Z,74
2024-03-27T14:05:00.252Z,74
2024-03-27T14:10:00.676Z,74
2024-03-27T14:15:00.187Z,75
2024-03-27T14:20:00.235Z,75
2024-03-27T14:25:00.196Z,75
2024-03-27T14:30:00.224Z,75
2024-03-27T14:35:00.243Z,75
2024-03-27T14:40:00.237Z,75
2024-03-27T14:45:00.195Z,76
2024-03-27T14:50:00.239Z,76
2024-03-27T14:55:00.199Z,78
2024-03-27T15:00:00.249Z,79
2024-03-27T15:05:00.191Z,79
2024-03-27T15:10:00.199Z,80
2024-03-27T15:15:00.680Z,80
2024-03-27T15:20:00.250Z,81
2024-03-27T15:25:00.258Z,82
2024-03-27T15:30:00.495Z,82
2024-03-27T15:35:00.517Z,83
2024-03-27T15:40:00.874Z,82
2024-03-27T15:45:00.179Z,80
2024-03-27T15:50:00.248Z,80
2024-03-27T15:55:00.201Z,80
2024-03-27T16:00:00.294Z,80
2024-03-27T16:05:00.300Z,79
2024-03-27T16:10:00.256Z,81
2024-03-27T16:15:00.239Z,79
2024-03-27T16:20:00.269Z,81
2024-03-27T16:25:00.236Z,82
2024-03-27T16:30:00.298Z,83
2024-03-27T16:35:00.200Z,83
2024-03-27T16:40:00.294Z,84
2024-03-27T16:45:00.233Z,84
2024-03-27T16:50:00.190Z,84
2024-03-27T16:55:00.364Z,85
2024-03-27T17:00:00.279Z,85
2024-03-27T17:05:00.235Z,86
2024-03-27T17:10:00.305Z,87
2024-03-27T17:15:00.196Z,86
2024-03-27T17:20:00.234Z,87
2024-03-27T17:25:00.332Z,87
2024-03-27T17:30:00.217Z,87
2024-03-27T17:35:00.229Z,88
2024-03-27T17:40:00.229Z,88
2024-03-27T17:45:00.369Z,89
2024-03-27T17:50:00.208Z,89
2024-03-27T17:55:00.481Z,89
2024-03-27T18:00:00.250Z,88
2024-03-27T18:05:00.224Z,88
2024-03-27T18:10:00.331Z,88
2024-03-27T18:15:00.170Z,88
2024-03-27T18:20:01.307Z,88
2024-03-27T18:25:00.731Z,88
2024-03-27T18:30:00.868Z,88
2024-03-27T18:35:00.172Z,88
2024-03-27T18:40:00.313Z,88
2024-03-27T18:45:00.207Z,88
2024-03-27T18:50:00.244Z,89
2024-03-27T18:55:00.219Z,88
2024-03-27T19:00:00.334Z,88
2024-03-27T19:05:00.263Z,88
2024-03-27T19:10:00.277Z,88
2024-03-27T19:15:00.206Z,88
2024-03-27T19:20:00.274Z,88
2024-03-27T19:25:00.312Z,88
2024-03-27T19:30:00.226Z,88
2024-03-27T19:35:00.274Z,89
2024-03-27T19:40:00.306Z,89
2024-03-27T19:45:00.237Z,89
2024-03-27T19:50:00.278Z,90
2024-03-27T19:55:00.188Z,89
2024-03-27T20:00:00.294Z,89
2024-03-27T20:05:00.230Z,89
2024-03-27T20:10:00.320Z,89
2024-03-27T20:15:00.271Z,89
2024-03-27T20:20:00.268Z,89
2024-03-27T20:25:00.191Z,89
2024-03-27T20:30:00.211Z,88
2024-03-27T20:35:00.232Z,89
2024-03-27T20:40:00.202Z,90
2024-03-27T20:45:00.213Z,90
2024-03-27T20:50:00.202Z,90
2024-03-27T20:55:00.199Z,91
2024-03-27T21:00:00.291Z,91
2024-03-27T21:05:00.195Z,91
2024-03-27T21:10:00.258Z,90
2024-03-27T21:15:00.193Z,90
2024-03-27T21:20:00.284Z,90
2024-03-27T21:25:00.231Z,90
2024-03-27T21:30:00.252Z,91
2024-03-27T21:35:00.278Z,91
2024-03-27T21:40:00.247Z,90
2024-03-27T21:45:00.342Z,91
2024-03-27T21:50:00.352Z,91
2024-03-27T21:55:00.258Z,91
2024-03-27T22:00:00.191Z,91
2024-03-27T22:05:00.142Z,91
2024-03-27T22:10:00.167Z,91
2024-03-27T22:15:00.143Z,91
2024-03-27T22:20:00.179Z,91
2024-03-27T22:25:00.175Z,91
2024-03-27T22:30:00.236Z,91
2024-03-27T22:35:00.213Z,91
2024-03-27T22:40:00.191Z,90
2024-03-27T22:45:00.154Z,90
2024-03-27T22:50:00.199Z,90
2024-03-27T22:55:00.141Z,89
2024-03-27T23:00:00.261Z,88
2024-03-27T23:05:00.185Z,88
2024-03-27T23:10:00.186Z,88
2024-03-27T23:15:00.150Z,88
2024-03-27T23:20:00.182Z,87
2024-03-27T23:25:00.183Z,87
2024-03-27T23:30:00.191Z,85
2024-03-27T23:35:00.152Z,83
2024-03-27T23:40:00.184Z,83
2024-03-27T23:45:00.184Z,83
2024-03-27T23:50:00.160Z,83
2024-03-27T23:55:00.237Z,82
